createdAt,value
2019-05-10T00:00:49.844Z,955.44
2019-05-10T00:01:49.754Z,955.40
2019-05-10T00:02:49.702Z,955.47
2019-05-10T00:03:49.649Z,955.42
2019-05-10T00:04:49.595Z,955.45
2019-05-10T00:05:49.584Z,955.49
2019-05-10T00:06:49.487Z,955.46
2019-05-10T00:07:49.436Z,955.47
2019-05-10T00:08:49.381Z,955.54
2019-05-10T00:09:49.327Z,955.50
2019-05-10T00:10:49.322Z,955.54
2019-05-10T00:11:49.686Z,955.54
2019-05-10T00:12:49.167Z,955.55
2019-05-10T00:13:49.121Z,955.53
2019-05-10T00:14:49.060Z,955.58
2019-05-10T00:15:49.041Z,955.60
2019-05-10T00:16:49.045Z,955.58
2019-05-10T00:17:48.901Z,955.57
2019-05-10T00:18:48.848Z,955.54
2019-05-10T00:19:48.790Z,955.60
2019-05-10T00:20:48.739Z,955.62
2019-05-10T00:21:48.707Z,955.62
2019-05-10T00:22:48.637Z,955.68
2019-05-10T00:23:48.577Z,955.64
2019-05-10T00:25:02.210Z,955.62
2019-05-10T00:25:51.221Z,955.62
2019-05-10T00:26:48.454Z,955.64
2019-05-10T00:27:48.368Z,955.67
2019-05-10T00:28:48.313Z,955.65
2019-05-10T00:29:48.284Z,955.65
2019-05-10T00:30:48.209Z,955.68
2019-05-10T00:31:48.198Z,955.64
2019-05-10T00:32:48.098Z,955.62
2019-05-10T00:33:48.050Z,955.65
2019-05-10T00:34:47.992Z,955.68
2019-05-10T00:35:47.940Z,955.68
2019-05-10T00:36:47.917Z,955.68
2019-05-10T00:37:47.832Z,955.71
2019-05-10T00:38:47.781Z,955.68
2019-05-10T00:39:47.756Z,955.70
2019-05-10T00:40:47.670Z,955.64
2019-05-10T00:41:47.627Z,955.67
2019-05-10T00:42:47.562Z,955.69
2019-05-10T00:43:47.521Z,955.63
2019-05-10T00:44:47.492Z,955.64
2019-05-10T00:45:47.402Z,955.58
2019-05-10T00:46:47.355Z,955.58
2019-05-10T00:47:47.298Z,955.62
2019-05-10T00:48:47.241Z,955.64
2019-05-10T00:49:47.218Z,955.65
2019-05-10T00:50:47.135Z,955.68
2019-05-10T00:51:47.078Z,955.65
2019-05-10T00:52:47.027Z,955.68
2019-05-10T00:53:47.009Z,955.70
2019-05-10T00:54:46.920Z,955.70
2019-05-10T00:55:46.865Z,955.80
2019-05-10T00:56:46.817Z,955.79
2019-05-10T00:57:46.762Z,955.79
2019-05-10T00:58:46.740Z,955.79
2019-05-10T00:59:46.705Z,955.76
2019-05-10T01:00:46.600Z,955.84
2019-05-10T01:01:46.548Z,955.82
2019-05-10T01:02:46.496Z,955.82
2019-05-10T01:03:46.433Z,955.81
2019-05-10T01:04:46.422Z,955.86
2019-05-10T01:05:46.331Z,955.86
2019-05-10T01:06:46.276Z,955.92
2019-05-10T01:07:46.223Z,955.90
2019-05-10T01:08:46.171Z,955.85
2019-05-10T01:09:46.147Z,955.88
2019-05-10T01:10:46.100Z,955.90
2019-05-10T01:11:46.010Z,955.89
2019-05-10T01:12:45.954Z,955.95
2019-05-10T01:13:45.898Z,955.87
2019-05-10T01:14:45.850Z,955.92
2019-05-10T01:15:46.932Z,955.88
2019-05-10T01:16:45.738Z,955.92
2019-05-10T01:17:45.688Z,955.92
2019-05-10T01:18:45.632Z,955.96
2019-05-10T01:19:45.578Z,955.97
2019-05-10T01:20:45.568Z,956.02
2019-05-10T01:21:45.473Z,955.98
2019-05-10T01:22:45.425Z,956.01
2019-05-10T01:23:45.369Z,956.03
2019-05-10T01:24:45.313Z,956.02
2019-05-10T01:25:45.297Z,955.97
2019-05-10T01:26:45.207Z,955.99
2019-05-10T01:27:45.149Z,956.01
2019-05-10T01:28:45.098Z,956.02
2019-05-10T01:29:45.044Z,956.08
2019-05-10T01:30:45.022Z,956.12
2019-05-10T01:31:44.980Z,956.17
2019-05-10T01:32:44.884Z,956.16
2019-05-10T01:33:44.830Z,956.17
2019-05-10T01:34:44.776Z,956.18
2019-05-10T01:35:44.722Z,956.20
2019-05-10T01:36:44.721Z,956.19
2019-05-10T01:37:44.617Z,956.20
2019-05-10T01:38:44.568Z,956.23
2019-05-10T01:39:44.505Z,956.25
2019-05-10T01:40:44.461Z,956.26
2019-05-10T01:41:44.445Z,956.26
2019-05-10T01:42:44.380Z,956.27
2019-05-10T01:43:44.291Z,956.27
2019-05-10T01:44:44.237Z,956.26
2019-05-10T01:45:44.191Z,956.28
2019-05-10T01:46:44.137Z,956.28
2019-05-10T01:47:44.116Z,956.29
2019-05-10T01:48:44.059Z,956.32
2019-05-10T01:49:43.972Z,956.34
2019-05-10T01:50:43.919Z,956.35
2019-05-10T01:51:43.862Z,956.35
2019-05-10T01:52:43.842Z,956.38
2019-05-10T01:53:43.757Z,956.39
2019-05-10T01:54:43.712Z,956.39
2019-05-10T01:55:52.177Z,956.42
2019-05-10T01:56:43.600Z,956.42
2019-05-10T01:57:43.571Z,956.45
2019-05-10T01:58:43.494Z,956.48
2019-05-10T01:59:43.471Z,956.50
2019-05-10T02:00:43.381Z,956.51
2019-05-10T02:01:43.327Z,956.51
2019-05-10T02:02:43.283Z,956.47
2019-05-10T02:03:43.218Z,956.49
2019-05-10T02:04:43.201Z,956.50
2019-05-10T02:05:43.144Z,956.52
2019-05-10T02:06:43.056Z,956.57
2019-05-10T02:07:43.006Z,956.58
2019-05-10T02:08:42.952Z,956.55
2019-05-10T02:09:42.943Z,956.56
2019-05-10T02:10:42.845Z,956.56
2019-05-10T02:11:42.790Z,956.57
2019-05-10T02:12:42.733Z,956.63
2019-05-10T02:13:42.681Z,956.64
2019-05-10T02:14:42.668Z,956.62
2019-05-10T02:15:42.573Z,956.66
2019-05-10T02:16:42.521Z,956.66
2019-05-10T02:17:42.469Z,956.66
2019-05-10T02:18:42.413Z,956.66
2019-05-10T02:19:42.446Z,956.73
2019-05-10T02:20:42.307Z,956.69
2019-05-10T02:21:42.250Z,956.73
2019-05-10T02:22:42.198Z,956.76
2019-05-10T02:23:42.183Z,956.74
2019-05-10T02:24:42.089Z,956.77
2019-05-10T02:25:42.034Z,956.76
2019-05-10T02:26:41.990Z,956.71
2019-05-10T02:27:41.926Z,956.78
2019-05-10T02:28:41.910Z,956.82
2019-05-10T02:29:41.824Z,956.79
2019-05-10T02:30:41.805Z,956.74
2019-05-10T02:31:41.712Z,956.78
2019-05-10T02:32:41.665Z,956.79
2019-05-10T02:33:41.636Z,956.77
2019-05-10T02:34:41.564Z,956.72
2019-05-10T02:35:41.501Z,956.67
2019-05-10T02:36:41.480Z,956.66
2019-05-10T02:37:41.391Z,956.58
2019-05-10T02:38:41.341Z,956.60
2019-05-10T02:39:41.285Z,956.62
2019-05-10T02:40:41.264Z,956.61
2019-05-10T02:41:41.174Z,956.64
2019-05-10T02:42:41.147Z,956.64
2019-05-10T02:43:41.075Z,956.62
2019-05-10T02:44:41.060Z,956.62
2019-05-10T02:45:40.965Z,956.64
2019-05-10T02:46:40.906Z,956.70
2019-05-10T02:47:40.850Z,956.71
2019-05-10T02:48:40.802Z,956.68
2019-05-10T02:49:40.786Z,956.68
2019-05-10T02:50:40.690Z,956.69
2019-05-10T02:51:40.668Z,956.72
2019-05-10T02:52:40.596Z,956.75
2019-05-10T02:53:40.533Z,956.73
2019-05-10T02:54:40.482Z,956.76
2019-05-10T02:55:40.419Z,956.77
2019-05-10T02:56:40.399Z,956.76
2019-05-10T02:57:40.350Z,956.77
2019-05-10T02:58:40.257Z,956.85
2019-05-10T02:59:40.207Z,956.85
2019-05-10T03:00:40.154Z,956.84
2019-05-10T03:01:40.099Z,956.89
2019-05-10T03:02:40.080Z,956.86
2019-05-10T03:03:39.989Z,956.90
2019-05-10T03:04:39.935Z,956.94
2019-05-10T03:05:39.885Z,956.95
2019-05-10T03:06:39.836Z,956.92
2019-05-10T03:07:39.826Z,956.93
2019-05-10T03:08:39.732Z,956.96
2019-05-10T03:09:39.668Z,956.97
2019-05-10T03:10:39.613Z,956.97
2019-05-10T03:11:39.556Z,957.05
2019-05-10T03:12:39.558Z,957.08
2019-05-10T03:13:39.451Z,957.03
2019-05-10T03:14:39.398Z,957.11
2019-05-10T03:15:39.343Z,957.06
2019-05-10T03:16:39.292Z,957.11
2019-05-10T03:17:39.286Z,957.09
2019-05-10T03:18:39.183Z,957.09
2019-05-10T03:19:39.126Z,957.09
2019-05-10T03:20:39.080Z,957.10
2019-05-10T03:21:39.020Z,957.10
2019-05-10T03:22:39.005Z,957.10
2019-05-10T03:23:38.915Z,957.09
2019-05-10T03:24:38.890Z,957.13
2019-05-10T03:25:38.826Z,957.18
2019-05-10T03:26:50.381Z,957.16
2019-05-10T03:27:38.697Z,957.15
2019-05-10T03:28:38.645Z,957.15
2019-05-10T03:29:38.633Z,957.17
2019-05-10T03:30:38.535Z,957.16
2019-05-10T03:31:38.481Z,957.18
2019-05-10T03:32:38.570Z,957.17
2019-05-10T03:33:38.413Z,957.17
2019-05-10T03:34:38.319Z,957.19
2019-05-10T03:35:38.262Z,957.19
2019-05-10T03:36:38.213Z,957.24
2019-05-10T03:37:38.161Z,957.22
2019-05-10T03:38:38.145Z,957.22
2019-05-10T03:39:38.053Z,957.24
2019-05-10T03:40:37.993Z,957.23
2019-05-10T03:41:37.942Z,957.22
2019-05-10T03:42:37.887Z,957.27
2019-05-10T03:43:37.864Z,957.29
2019-05-10T03:44:37.780Z,957.28
2019-05-10T03:45:37.727Z,957.31
2019-05-10T03:46:37.672Z,957.37
2019-05-10T03:47:37.651Z,957.31
2019-05-10T03:48:37.567Z,957.30
2019-05-10T03:49:37.510Z,957.32
2019-05-10T03:50:37.452Z,957.30
2019-05-10T03:51:37.398Z,957.33
2019-05-10T03:52:37.369Z,957.30
2019-05-10T03:53:37.296Z,957.30
2019-05-10T03:54:37.240Z,957.33
2019-05-10T03:55:37.184Z,957.32
2019-05-10T03:56:37.131Z,957.30
2019-05-10T03:57:37.119Z,957.33
2019-05-10T03:58:37.023Z,957.33
2019-05-10T03:59:36.977Z,957.38
2019-05-10T04:00:36.916Z,957.38
2019-05-10T04:01:36.859Z,957.33
2019-05-10T04:02:36.843Z,957.37
2019-05-10T04:03:36.751Z,957.36
2019-05-10T04:04:36.698Z,957.38
2019-05-10T04:05:36.643Z,957.35
2019-05-10T04:06:36.594Z,957.42
2019-05-10T04:07:36.574Z,957.45
2019-05-10T04:08:36.483Z,957.46
2019-05-10T04:09:36.432Z,957.43
2019-05-10T04:10:36.380Z,957.43
2019-05-10T04:11:36.326Z,957.44
2019-05-10T04:12:36.300Z,957.51
2019-05-10T04:13:36.245Z,957.50
2019-05-10T04:14:36.160Z,957.53
2019-05-10T04:15:36.147Z,957.54
2019-05-10T04:16:36.050Z,957.53
2019-05-10T04:17:36.022Z,957.56
2019-05-10T04:18:35.991Z,957.58
2019-05-10T04:19:35.892Z,957.58
2019-05-10T04:20:35.860Z,957.62
2019-05-10T04:21:35.800Z,957.63
2019-05-10T04:22:35.736Z,957.66
2019-05-10T04:23:35.730Z,957.63
2019-05-10T04:24:36.661Z,957.66
2019-05-10T04:25:35.569Z,957.64
2019-05-10T04:26:35.512Z,957.67
2019-05-10T04:27:35.455Z,957.72
2019-05-10T04:28:35.453Z,957.72
2019-05-10T04:29:35.360Z,957.73
2019-05-10T04:30:35.297Z,957.70
2019-05-10T04:31:35.238Z,957.72
2019-05-10T04:32:35.189Z,957.71
2019-05-10T04:33:35.163Z,957.71
2019-05-10T04:34:35.110Z,957.75
2019-05-10T04:35:35.025Z,957.76
2019-05-10T04:36:34.969Z,957.73
2019-05-10T04:37:34.916Z,957.75
2019-05-10T04:38:34.858Z,957.78
2019-05-10T04:39:34.841Z,957.79
2019-05-10T04:40:34.784Z,957.79
2019-05-10T04:41:34.708Z,957.82
2019-05-10T04:42:34.642Z,957.72
2019-05-10T04:43:34.588Z,957.73
2019-05-10T04:44:34.574Z,957.76
2019-05-10T04:45:34.485Z,957.76
2019-05-10T04:46:34.469Z,957.79
2019-05-10T04:47:34.373Z,957.81
2019-05-10T04:48:34.320Z,957.75
2019-05-10T04:49:34.263Z,957.75
2019-05-10T04:50:34.243Z,957.81
2019-05-10T04:51:34.185Z,957.78
2019-05-10T04:52:34.114Z,957.83
2019-05-10T04:53:34.049Z,957.87
2019-05-10T04:54:34.002Z,957.88
2019-05-10T04:55:33.978Z,957.91
2019-05-10T04:56:33.885Z,957.81
2019-05-10T04:57:49.174Z,957.84
2019-05-10T04:58:33.781Z,957.87
2019-05-10T04:59:33.720Z,957.91
2019-05-10T05:00:33.706Z,957.86
2019-05-10T05:01:33.614Z,957.85
2019-05-10T05:02:33.559Z,957.89
2019-05-10T05:03:33.509Z,957.89
2019-05-10T05:04:33.452Z,957.86
2019-05-10T05:05:33.454Z,957.90
2019-05-10T05:06:33.341Z,957.93
2019-05-10T05:07:33.291Z,957.93
2019-05-10T05:08:33.235Z,957.95
2019-05-10T05:09:33.181Z,957.96
2019-05-10T05:10:33.156Z,957.97
2019-05-10T05:11:33.075Z,957.99
2019-05-10T05:12:33.049Z,958.03
2019-05-10T05:13:32.966Z,958.04
2019-05-10T05:14:32.915Z,958.06
2019-05-10T05:15:32.855Z,958.03
2019-05-10T05:16:32.806Z,958.07
2019-05-10T05:17:32.778Z,958.10
2019-05-10T05:18:32.694Z,958.08
2019-05-10T05:19:32.643Z,958.08
2019-05-10T05:20:32.583Z,958.07
2019-05-10T05:21:32.530Z,958.08
2019-05-10T05:22:32.523Z,958.10
2019-05-10T05:23:32.421Z,958.13
2019-05-10T05:24:32.370Z,958.08
2019-05-10T05:25:35.222Z,958.12
2019-05-10T05:26:32.261Z,958.09
2019-05-10T05:27:32.246Z,958.08
2019-05-10T05:28:32.156Z,958.08
2019-05-10T05:29:32.099Z,958.08
2019-05-10T05:30:32.096Z,958.11
2019-05-10T05:31:31.992Z,958.07
2019-05-10T05:32:31.937Z,958.09
2019-05-10T05:33:31.885Z,958.07
2019-05-10T05:34:31.837Z,958.07
2019-05-10T05:35:31.820Z,958.09
2019-05-10T05:36:31.724Z,958.10
2019-05-10T05:37:31.673Z,958.13
2019-05-10T05:38:31.618Z,958.17
2019-05-10T05:39:31.572Z,958.17
2019-05-10T05:40:31.538Z,958.19
2019-05-10T05:41:32.031Z,958.23
2019-05-10T05:42:31.441Z,958.17
2019-05-10T05:43:31.344Z,958.25
2019-05-10T05:44:31.292Z,958.33
2019-05-10T05:45:33.923Z,958.27
2019-05-10T05:46:31.203Z,958.34
2019-05-10T05:47:31.163Z,958.31
2019-05-10T05:48:39.814Z,958.33
2019-05-10T05:49:31.025Z,958.32
2019-05-10T05:50:30.978Z,958.30
2019-05-10T05:51:30.952Z,958.32
2019-05-10T05:52:30.864Z,958.36
2019-05-10T05:53:35.889Z,958.36
2019-05-10T05:54:30.755Z,958.36
2019-05-10T05:55:32.184Z,958.40
2019-05-10T05:56:30.688Z,958.39
2019-05-10T05:57:30.594Z,958.36
2019-05-10T05:58:30.540Z,958.37
2019-05-10T05:59:30.490Z,958.41
2019-05-10T06:00:30.440Z,958.44
2019-05-10T06:01:30.423Z,958.46
2019-05-10T06:02:30.327Z,958.46
2019-05-10T06:03:30.272Z,958.52
2019-05-10T06:04:30.216Z,958.48
2019-05-10T06:05:34.646Z,958.51
2019-05-10T06:06:30.156Z,958.45
2019-05-10T06:07:31.251Z,958.49
2019-05-10T06:08:30.355Z,958.51
2019-05-10T06:09:32.074Z,958.50
2019-05-10T06:10:29.896Z,958.53
2019-05-10T06:11:35.628Z,958.52
2019-05-10T06:12:29.825Z,958.55
2019-05-10T06:13:30.965Z,958.57
2019-05-10T06:14:29.680Z,958.59
2019-05-10T06:15:31.536Z,958.59
2019-05-10T06:16:29.577Z,958.60
2019-05-10T06:17:31.680Z,958.59
2019-05-10T06:18:29.462Z,958.59
2019-05-10T06:19:30.733Z,958.65
2019-05-10T06:20:29.358Z,958.64
2019-05-10T06:21:29.301Z,958.68
2019-05-10T06:22:29.288Z,958.68
2019-05-10T06:23:34.946Z,958.65
2019-05-10T06:24:29.148Z,958.67
2019-05-10T06:25:39.394Z,958.70
2019-05-10T06:26:29.029Z,958.70
2019-05-10T06:27:28.976Z,958.72
2019-05-10T06:28:57.060Z,958.68
2019-05-10T06:29:28.873Z,958.69
2019-05-10T06:30:28.821Z,958.71
2019-05-10T06:31:28.784Z,958.69
2019-05-10T06:32:28.712Z,958.73
2019-05-10T06:33:28.793Z,958.74
2019-05-10T06:34:31.994Z,958.73
2019-05-10T06:35:28.555Z,958.75
2019-05-10T06:36:28.492Z,958.79
2019-05-10T06:37:31.348Z,958.75
2019-05-10T06:38:28.421Z,958.77
2019-05-10T06:39:28.336Z,958.77
2019-05-10T06:40:39.417Z,958.77
2019-05-10T06:41:28.224Z,958.78
2019-05-10T06:42:28.816Z,958.82
2019-05-10T06:43:28.121Z,958.79
2019-05-10T06:44:31.300Z,958.82
2019-05-10T06:45:28.037Z,958.84
2019-05-10T06:46:29.304Z,958.82
2019-05-10T06:47:27.907Z,958.83
2019-05-10T06:48:33.152Z,958.80
2019-05-10T06:49:27.832Z,958.80
2019-05-10T06:50:29.946Z,958.81
2019-05-10T06:51:27.700Z,958.83
2019-05-10T06:52:29.667Z,958.81
2019-05-10T06:53:27.589Z,958.82
2019-05-10T06:54:27.530Z,958.85
2019-05-10T06:55:27.518Z,958.82
2019-05-10T06:56:27.427Z,958.85
2019-05-10T06:57:27.369Z,958.85
2019-05-10T06:58:30.492Z,958.90
2019-05-10T06:59:27.297Z,958.89
2019-05-10T07:00:27.209Z,958.90
2019-05-10T07:01:27.156Z,958.90
2019-05-10T07:02:32.181Z,958.90
2019-05-10T07:03:27.052Z,958.96
2019-05-10T07:04:27.036Z,958.95
2019-05-10T07:05:26.944Z,958.92
2019-05-10T07:06:26.889Z,958.93
2019-05-10T07:07:43.442Z,958.91
2019-05-10T07:08:26.787Z,958.94
2019-05-10T07:09:26.762Z,958.92
2019-05-10T07:10:26.677Z,958.92
2019-05-10T07:11:26.642Z,959.00
2019-05-10T07:12:29.949Z,958.95
2019-05-10T07:13:26.517Z,958.93
2019-05-10T07:14:27.364Z,959.04
2019-05-10T07:15:26.413Z,958.99
2019-05-10T07:16:26.362Z,958.93
2019-05-10T07:17:26.344Z,959.02
2019-05-10T07:18:26.250Z,959.14
2019-05-10T07:19:28.700Z,959.00
2019-05-10T07:20:29.644Z,959.06
2019-05-10T07:21:26.091Z,959.03
2019-05-10T07:22:26.920Z,958.99
2019-05-10T07:23:27.052Z,959.01
2019-05-10T07:24:27.090Z,958.97
2019-05-10T07:25:25.890Z,958.96
2019-05-10T07:26:26.734Z,959.03
2019-05-10T07:27:25.798Z,958.98
2019-05-10T07:28:25.722Z,959.00
2019-05-10T07:29:29.988Z,959.08
2019-05-10T07:30:25.615Z,959.12
2019-05-10T07:31:25.594Z,959.11
2019-05-10T07:32:25.543Z,959.08
2019-05-10T07:33:25.456Z,959.12
2019-05-10T07:34:25.405Z,959.13
2019-05-10T07:35:25.354Z,959.16
2019-05-10T07:36:27.147Z,959.17
2019-05-10T07:37:25.290Z,959.16
2019-05-10T07:38:30.887Z,959.18
2019-05-10T07:39:25.139Z,959.21
2019-05-10T07:40:25.086Z,959.07
2019-05-10T07:41:26.840Z,959.16
2019-05-10T07:42:25.026Z,959.09
2019-05-10T07:43:28.495Z,959.09
2019-05-10T07:44:24.878Z,959.13
2019-05-10T07:45:25.734Z,959.12
2019-05-10T07:46:24.770Z,959.14
2019-05-10T07:47:30.238Z,959.12
2019-05-10T07:48:24.664Z,959.15
2019-05-10T07:49:30.356Z,959.19
2019-05-10T07:50:24.560Z,959.26
2019-05-10T07:51:28.916Z,959.24
2019-05-10T07:52:24.525Z,959.28
2019-05-10T07:53:25.248Z,959.22
2019-05-10T07:54:24.353Z,959.20
2019-05-10T07:55:28.533Z,959.19
2019-05-10T07:56:24.240Z,959.17
2019-05-10T07:57:26.814Z,959.20
2019-05-10T07:58:24.135Z,959.21
2019-05-10T07:59:29.097Z,959.27
2019-05-10T08:00:25.436Z,959.25
2019-05-10T08:01:32.167Z,959.21
2019-05-10T08:02:23.962Z,959.26
2019-05-10T08:03:24.022Z,959.26
2019-05-10T08:04:31.731Z,959.23
2019-05-10T08:05:23.772Z,959.25
2019-05-10T08:06:23.728Z,959.21
2019-05-10T08:07:23.699Z,959.14
2019-05-10T08:08:23.615Z,959.21
2019-05-10T08:09:23.568Z,959.15
2019-05-10T08:10:23.548Z,959.25
2019-05-10T08:11:23.496Z,959.25
2019-05-10T08:12:23.416Z,959.34
2019-05-10T08:13:25.082Z,959.33
2019-05-10T08:14:25.273Z,959.33
2019-05-10T08:15:24.762Z,959.33
2019-05-10T08:16:23.213Z,959.38
2019-05-10T08:17:23.144Z,959.35
2019-05-10T08:18:25.389Z,959.35
2019-05-10T08:19:23.040Z,959.41
2019-05-10T08:20:39.970Z,959.33
2019-05-10T08:21:26.243Z,959.39
2019-05-10T08:22:23.007Z,959.42
2019-05-10T08:23:26.399Z,959.36
2019-05-10T08:24:22.822Z,959.39
2019-05-10T08:25:23.184Z,959.36
2019-05-10T08:26:24.816Z,959.36
2019-05-10T08:27:23.060Z,959.39
2019-05-10T08:28:22.914Z,959.42
2019-05-10T08:29:22.599Z,959.45
2019-05-10T08:30:28.763Z,959.53
2019-05-10T08:31:25.930Z,959.55
2019-05-10T08:32:25.472Z,959.51
2019-05-10T08:33:22.918Z,959.53
2019-05-10T08:34:22.851Z,959.57
2019-05-10T08:35:22.252Z,959.59
2019-05-10T08:36:22.172Z,959.65
2019-05-10T08:37:30.922Z,959.64
2019-05-10T08:38:22.111Z,959.54
2019-05-10T08:39:22.463Z,959.65
2019-05-10T08:40:28.116Z,959.67
2019-05-10T08:41:22.335Z,959.60
2019-05-10T08:42:37.812Z,959.61
2019-05-10T08:43:24.599Z,959.67
2019-05-10T08:44:23.976Z,959.72
2019-05-10T08:45:22.673Z,959.63
2019-05-10T08:46:29.165Z,959.72
2019-05-10T08:47:26.842Z,959.73
2019-05-10T08:48:23.325Z,959.75
2019-05-10T08:49:25.259Z,959.66
2019-05-10T08:50:43.593Z,959.71
2019-05-10T08:51:22.747Z,959.70
2019-05-10T08:52:27.368Z,959.69
2019-05-10T08:53:23.104Z,959.71
2019-05-10T08:54:22.098Z,959.69
2019-05-10T08:55:22.636Z,959.71
2019-05-10T08:56:24.217Z,959.70
2019-05-10T08:57:22.274Z,959.56
2019-05-10T08:58:31.048Z,959.69
2019-05-10T08:59:25.928Z,959.70
2019-05-10T09:00:40.265Z,959.71
2019-05-10T09:01:27.561Z,959.71
2019-05-10T09:02:28.860Z,959.69
2019-05-10T09:03:22.759Z,959.73
2019-05-10T09:04:22.265Z,959.70
2019-05-10T09:05:28.621Z,959.76
2019-05-10T09:06:22.070Z,959.79
2019-05-10T09:07:23.120Z,959.80
2019-05-10T09:08:24.434Z,959.82
2019-05-10T09:09:22.715Z,959.85
2019-05-10T09:10:22.063Z,959.86
2019-05-10T09:11:22.970Z,959.94
2019-05-10T09:12:22.934Z,959.98
2019-05-10T09:13:22.464Z,959.86
2019-05-10T09:14:23.902Z,959.95
2019-05-10T09:15:22.261Z,959.96
2019-05-10T09:16:20.201Z,959.90
2019-05-10T09:17:23.803Z,959.94
2019-05-10T09:18:20.106Z,959.98
2019-05-10T09:19:27.711Z,960.05
2019-05-10T09:20:22.077Z,960.04
2019-05-10T09:21:22.189Z,960.06
2019-05-10T09:22:26.004Z,959.98
2019-05-10T09:23:22.248Z,960.04
2019-05-10T09:24:19.848Z,960.03
2019-05-10T09:25:20.264Z,959.95
2019-05-10T09:26:19.723Z,960.04
2019-05-10T09:27:19.673Z,960.07
2019-05-10T09:28:21.678Z,960.03
2019-05-10T09:29:21.782Z,960.11
2019-05-10T09:30:19.537Z,960.12
2019-05-10T09:31:22.757Z,960.25
2019-05-10T09:32:21.454Z,960.12
2019-05-10T09:33:19.390Z,960.17
2019-05-10T09:34:23.807Z,960.10
2019-05-10T09:35:19.300Z,960.21
2019-05-10T09:36:25.093Z,960.14
2019-05-10T09:37:19.200Z,960.16
2019-05-10T09:38:19.152Z,960.10
2019-05-10T09:39:22.571Z,960.14
2019-05-10T09:40:19.079Z,960.05
2019-05-10T09:41:19.052Z,960.04
2019-05-10T09:42:26.574Z,960.10
2019-05-10T09:43:21.202Z,960.05
2019-05-10T09:44:18.873Z,960.03
2019-05-10T09:45:18.826Z,960.07
2019-05-10T09:46:18.812Z,960.01
2019-05-10T09:47:18.761Z,960.04
2019-05-10T09:48:18.711Z,960.16
2019-05-10T09:49:18.742Z,960.13
2019-05-10T09:50:18.585Z,960.16
2019-05-10T09:51:19.208Z,960.17
2019-05-10T09:52:18.911Z,960.20
2019-05-10T09:53:23.641Z,960.21
2019-05-10T09:54:18.399Z,960.23
2019-05-10T09:55:18.347Z,960.22
2019-05-10T09:56:18.303Z,960.32
2019-05-10T09:57:18.290Z,960.21
2019-05-10T09:58:22.140Z,960.27
2019-05-10T09:59:18.161Z,960.22
2019-05-10T10:00:18.112Z,960.31
2019-05-10T10:01:21.395Z,960.36
2019-05-10T10:02:18.937Z,960.36
2019-05-10T10:03:17.975Z,960.29
2019-05-10T10:04:20.254Z,960.30
2019-05-10T10:05:18.000Z,960.27
2019-05-10T10:06:17.842Z,960.31
2019-05-10T10:07:19.023Z,960.40
2019-05-10T10:08:17.774Z,960.41
2019-05-10T10:09:17.696Z,960.32
2019-05-10T10:10:23.069Z,960.45
2019-05-10T10:11:18.686Z,960.33
2019-05-10T10:12:17.681Z,960.16
2019-05-10T10:13:36.023Z,960.27
2019-05-10T10:14:17.917Z,960.33
2019-05-10T10:15:25.254Z,960.28
2019-05-10T10:16:19.163Z,960.25
2019-05-10T10:17:20.401Z,960.28
2019-05-10T10:18:21.258Z,960.28
2019-05-10T10:19:20.310Z,960.28
2019-05-10T10:20:17.190Z,960.31
2019-05-10T10:21:18.937Z,960.19
2019-05-10T10:22:17.393Z,960.28
2019-05-10T10:23:17.372Z,960.34
2019-05-10T10:24:19.995Z,960.25
2019-05-10T10:25:17.668Z,960.23
2019-05-10T10:26:18.557Z,960.22
2019-05-10T10:27:17.211Z,960.33
2019-05-10T10:28:18.881Z,960.39
2019-05-10T10:29:17.304Z,960.27
2019-05-10T10:30:21.084Z,960.20
2019-05-10T10:31:27.088Z,960.30
2019-05-10T10:32:16.641Z,960.31
2019-05-10T10:33:24.492Z,960.23
2019-05-10T10:34:17.344Z,960.38
2019-05-10T10:35:20.999Z,960.44
2019-05-10T10:36:16.459Z,960.32
2019-05-10T10:37:22.221Z,960.34
2019-05-10T10:38:17.918Z,960.32
2019-05-10T10:39:17.046Z,960.37
2019-05-10T10:40:18.351Z,960.26
2019-05-10T10:41:17.198Z,960.24
2019-05-10T10:42:17.700Z,960.28
2019-05-10T10:43:17.975Z,960.35
2019-05-10T10:44:18.158Z,960.30
2019-05-10T10:45:17.376Z,960.31
2019-05-10T10:46:17.674Z,960.34
2019-05-10T10:47:17.987Z,960.43
2019-05-10T10:48:17.863Z,960.36
2019-05-10T10:49:17.807Z,960.30
2019-05-10T10:50:17.261Z,960.42
2019-05-10T10:51:18.030Z,960.53
2019-05-10T10:52:17.264Z,960.40
2019-05-10T10:53:17.803Z,960.30
2019-05-10T10:54:17.612Z,960.34
2019-05-10T10:55:15.599Z,960.36
2019-05-10T10:56:17.658Z,960.34
2019-05-10T10:57:17.907Z,960.36
2019-05-10T10:58:18.224Z,960.41
2019-05-10T10:59:15.414Z,960.33
2019-05-10T11:00:20.284Z,960.45
2019-05-10T11:01:21.666Z,960.35
2019-05-10T11:02:31.329Z,960.36
2019-05-10T11:03:15.232Z,960.48
2019-05-10T11:04:16.383Z,960.52
2019-05-10T11:05:15.144Z,960.54
2019-05-10T11:06:15.508Z,960.47
2019-05-10T11:07:15.052Z,960.44
2019-05-10T11:08:15.007Z,960.37
2019-05-10T11:09:14.962Z,960.60
2019-05-10T11:10:18.846Z,960.41
2019-05-10T11:11:14.905Z,960.40
2019-05-10T11:12:19.899Z,960.50
2019-05-10T11:13:20.487Z,960.49
2019-05-10T11:14:14.736Z,960.55
2019-05-10T11:15:16.648Z,960.50
2019-05-10T11:16:15.755Z,960.45
2019-05-10T11:17:14.601Z,960.51
2019-05-10T11:18:14.591Z,960.54
2019-05-10T11:19:15.708Z,960.43
2019-05-10T11:20:14.472Z,960.46
2019-05-10T11:21:14.423Z,960.56
2019-05-10T11:22:14.384Z,960.54
2019-05-10T11:23:16.160Z,960.60
2019-05-10T11:24:17.906Z,960.50
2019-05-10T11:25:14.245Z,960.52
2019-05-10T11:26:14.208Z,960.57
2019-05-10T11:27:17.143Z,960.58
2019-05-10T11:28:14.113Z,960.62
2019-05-10T11:29:25.434Z,960.53
2019-05-10T11:30:14.030Z,960.54
2019-05-10T11:31:13.979Z,960.56
2019-05-10T11:32:16.634Z,960.55
2019-05-10T11:33:25.897Z,960.56
2019-05-10T11:34:13.847Z,960.59
2019-05-10T11:35:18.976Z,960.65
2019-05-10T11:36:13.758Z,960.69
2019-05-10T11:37:16.115Z,960.62
2019-05-10T11:38:16.231Z,960.65
2019-05-10T11:39:25.330Z,960.64
2019-05-10T11:40:18.101Z,960.63
2019-05-10T11:41:20.660Z,960.61
2019-05-10T11:42:15.511Z,960.61
2019-05-10T11:43:17.348Z,960.55
2019-05-10T11:44:13.397Z,960.52
2019-05-10T11:45:13.354Z,960.60
2019-05-10T11:46:13.310Z,960.47
2019-05-10T11:47:23.276Z,960.44
2019-05-10T11:48:13.254Z,960.52
2019-05-10T11:49:13.207Z,960.47
2019-05-10T11:50:27.656Z,960.57
2019-05-10T11:51:17.293Z,960.49
2019-05-10T11:52:13.376Z,960.53
2019-05-10T11:53:17.214Z,960.56
2019-05-10T11:54:12.954Z,960.57
2019-05-10T11:55:12.908Z,960.52
2019-05-10T11:56:14.022Z,960.54
2019-05-10T11:57:13.821Z,960.55
2019-05-10T11:58:13.316Z,960.51
2019-05-10T11:59:16.398Z,960.47
2019-05-10T12:00:24.659Z,960.49
2019-05-10T12:01:17.640Z,960.42
2019-05-10T12:02:33.924Z,960.36
2019-05-10T12:03:18.457Z,960.46
2019-05-10T12:05:19.941Z,960.48
2019-05-10T12:06:12.435Z,960.42
2019-05-10T12:07:13.024Z,960.43
2019-05-10T12:08:13.125Z,960.43
2019-05-10T12:09:12.567Z,960.50
2019-05-10T12:10:20.682Z,960.49
2019-05-10T12:12:12.540Z,960.53
2019-05-10T12:14:13.871Z,960.46
2019-05-10T12:15:13.745Z,960.33
2019-05-10T12:16:16.646Z,960.40
2019-05-10T12:17:14.230Z,960.35
2019-05-10T12:19:19.679Z,960.36
2019-05-10T12:20:16.505Z,960.35
2019-05-10T12:21:11.754Z,960.30
2019-05-10T12:22:15.810Z,960.31
2019-05-10T12:23:13.380Z,960.37
2019-05-10T12:24:32.558Z,960.40
2019-05-10T12:25:59.929Z,960.48
2019-05-10T12:26:05.394Z,960.42
2019-05-10T12:26:15.763Z,960.43
2019-05-10T12:26:27.645Z,960.42
2019-05-10T12:26:50.074Z,960.38
2019-05-10T12:27:22.589Z,960.47
2019-05-10T12:28:15.371Z,960.49
2019-05-10T12:29:16.775Z,960.54